Tiempo atmosférico en la estación meteorológica de Sevilla, Tablada, Sevilla (9 m.)



Fecha
DESCASC
Temp. máxima en grados centígrados (hora)
DESCASC
Temp. mínima en grados centígrados (hora)
DESCASC
Temp. media en grados centígrados
DESCASC
Racha de viento máxima en m/sg (hora)
DESCASC
Velocidad máxima media en intervalos de 10 minutos(hora)
DESCASC
Precipitaciones diarias en mm
DESCASC
Precipitaciones de 00:00 a 06:00 en mm
DESCASC
Precipitaciones de 06:00 a 12:00 en mm
DESCASC
Precipitaciones de 12:00 a 18:00 en mm
DESCASC
Precipitaciones de 18:00 a 24:00 en mm
DESCASC
11-12-2019 16.1 (16:00) 4.9 (06:40) 10.5 5 (19:00) 2.5 (15:10) 0 0 0 0 0
08-12-2019 19.6 (15:00) 7.1 (00:00) 13.4 3.61 (10:10) 1.67 (10:00) 0 0 0 0 0
07-12-2019 21 (15:50) 7.9 (00:00) 14.5 3.89 (12:00) 1.94 (09:20) 0 0 0 0 0
06-12-2019 20.2 (15:00) 8.5 (00:00) 14.4 5.83 (12:20) 3.06 (12:30) 0 0 0 0 0
05-12-2019 18.2 (16:10) 5.6 (00:00) 11.9 8.89 (15:30) 4.72 (15:30) 0 0 0 0 0
04-12-2019 16.8 (15:40) 7.8 (23:59) 12.3 6.11 (17:10) 3.33 (17:10) 0 0 0 0 0
03-12-2019 19.8 (15:40) 9 (00:00) 14.4 7.5 (12:30) 4.17 (13:00) 0 0 0 0 0
02-12-2019 17.2 (16:40) 10.8 (00:00) 14 8.61 (12:40) 4.44 (14:00) 0 0 0 0 0
01-12-2019 16.6 (13:20) 10 (00:00) 13.3 8.61 (13:50) 4.17 (13:50) 5.4 0 0 5 0.4
30-11-2019 21.4 (15:10) 9.5 (00:00) 15.4 6.39 (19:20) 2.78 (19:20) 0 0 0 0 0
29-11-2019 21 (15:10) 9.7 (00:00) 15.3 4.17 (15:20) 2.22 (11:00) 0 0 0 0 0
28-11-2019 20 (16:30) 11.2 (23:59) 15.6 2.5 (08:20) 1.39 (08:20) 0 0 0 0 0
27-11-2019 18.8 (15:20) 13.2 (00:00) 16 7.22 (00:30) 3.61 (00:30) 0 0 0 0 0
26-11-2019 19 (17:00) 13.9 (00:00) 16.4 8.33 (22:50) 4.44 (22:50) 0.4 0 0.2 0 0.2
25-11-2019 17.6 (15:20) 11.4 (00:00) 14.5 8.06 (16:00) 3.89 (15:10) 0.6 0 0.2 0.4 0
24-11-2019 17.8 (15:50) 5.7 (00:00) 11.7 5 (15:10) 3.06 (16:00) 0 0 0 0 0
23-11-2019 19.5 (14:20) 9.9 (00:00) 14.7 8.61 (13:20) 4.44 (13:30) 0 0 0 0 0
22-11-2019 18.2 (16:20) 13.4 (00:00) 15.8 16.94 (16:20) 8.89 (17:20) 5.6 0 0.8 4.6 0.2
21-11-2019 15.3 (13:30) 10.4 (00:00) 12.8 8.33 (14:40) 3.06 (13:50) 22.4 0 0.2 22.2 0
20-11-2019 11.4 (16:40) 6.2 (05:00) 8.8 5.28 (15:10) 2.5 (12:50) 7.2 0 0.6 5.4 1.2
19-11-2019 18 (15:20) 5.5 (00:00) 11.8 4.17 (10:40) 2.22 (10:40) 0 0 0 0 0
18-11-2019 19.3 (15:40) 6.8 (00:00) 13 10.28 (02:00) 5.56 (01:50) 3.2 3.2 0 0 0
17-11-2019 14.9 (22:20) 4.1 (00:00) 9.5 6.67 (22:00) 3.61 (22:10) 0.6 0 0.6 0 0
16-11-2019 17.3 (15:40) 3.1 (00:00) 10.2 4.44 (17:00) 2.5 (16:50) 0 0 0 0 0
15-11-2019 17 (13:40) 6.2 (00:00) 11.6 6.67 (16:00) 3.06 (00:10) 0 0 0 0 0

Gráficas

Temp. máximas Temp. mínimas Temp. medias Precipitaciones Rachas de viento máximas Velocidades máximas media en intervalos de 10 minutos

Datos horarios

Fecha y hora oficial Temperatura (ºC) Velocidad del viento (km/h) Dirección del viento Racha (km/h) Dirección de racha Precipitación (mm) Presión (hPa) Tendencia (hPa) Humedad (%)
2019-12-14 23:00:00 14.1 2 Oeste 5 Oeste 0 -- -- 80
2019-12-14 22:00:00 14.2 3 Noroeste 9 Oeste 0 -- -- 78
2019-12-14 21:00:00 14.2 3 Sur 6 Sur 0 -- -- 76
2019-12-14 20:00:00 14.5 0 Calma 6 Sur 0 -- -- 70
2019-12-14 19:00:00 14.9 2 Sudoeste 3 Sur 0 -- -- 70
2019-12-14 18:00:00 15.8 0 Calma 5 Norte 0 -- -- 64
2019-12-14 17:00:00 16.5 3 Nordeste 13 Nordeste 0 -- -- 58
2019-12-14 16:00:00 16.7 3 Noroeste 11 Noroeste 0 -- -- 62
2019-12-14 15:00:00 17 4 Norte 12 Norte 0 -- -- 59
2019-12-14 14:00:00 17 5 Nordeste 13 Norte 0 -- -- 57
2019-12-14 13:00:00 17.1 4 Norte 14 Noroeste 0 -- -- 57
2019-12-14 12:00:00 16.7 9 Norte 18 Noroeste 0 -- -- 59
2019-12-14 11:00:00 15.7 6 Noroeste 13 Norte 0 -- -- 65
2019-12-14 10:00:00 14.1 4 Noroeste 10 Noroeste 0 -- -- 75
2019-12-14 09:00:00 13.3 0 Calma 9 Noroeste 0 -- -- 76
2019-12-14 08:00:00 13.5 6 Noroeste 12 Noroeste 0 -- -- 72
2019-12-14 07:00:00 13.6 3 Norte 11 Noroeste 0 -- -- 82
2019-12-14 06:00:00 13.3 3 Oeste 6 Noroeste 0 -- -- 83
2019-12-14 05:00:00 13.1 2 Oeste 4 Oeste 0 -- -- 84
2019-12-14 04:00:00 13.4 0 Calma 9 Oeste 0 -- -- 84
2019-12-14 03:00:00 14.2 3 Noroeste 10 Noroeste 0 -- -- 83
2019-12-14 02:00:00 14.3 3 Noroeste 12 Noroeste 0 -- -- 85
2019-12-14 01:00:00 14.4 6 Noroeste 15 Oeste 0 -- -- 84
2019-12-14 00:00:00 14.7 5 Oeste 17 Oeste 0 -- -- 81
2019-12-13 23:00:00 14.8 6 Noroeste 16 Oeste 0 -- -- 81
2019-12-13 22:00:00 14.3 4 Noroeste 13 Noroeste 0 -- -- 83
2019-12-13 21:00:00 14.8 4 Oeste 10 Oeste 0 -- -- 82
2019-12-13 20:00:00 15.2 4 Oeste 13 Oeste 0 -- -- 80
2019-12-13 19:00:00 15.6 6 Oeste 21 Oeste 0 -- -- 78
2019-12-13 18:00:00 16.7 7 Oeste 19 Oeste 0 -- -- 74
2019-12-13 17:00:00 17.4 8 Oeste 23 Oeste 0 -- -- 72
2019-12-13 16:00:00 17.4 12 Oeste 27 Oeste 0 -- -- 72
2019-12-13 15:00:00 17.4 9 Oeste 25 Oeste 0 -- -- 72
2019-12-13 14:00:00 17.4 11 Oeste 25 Sudoeste 0 -- -- 71
2019-12-13 13:00:00 17.4 13 Oeste 25 Oeste 0 -- -- 71
2019-12-13 12:00:00 16.4 11 Oeste 25 Oeste 0 -- -- 75
2019-12-13 11:00:00 16.9 14 Oeste 26 Sudoeste 0 -- -- 76
2019-12-13 10:00:00 14.1 9 Sudoeste 20 Oeste 0 -- -- 91
2019-12-13 09:00:00 12.9 8 Sudoeste 16 Sudoeste 0 -- -- 92
2019-12-13 08:00:00 12.8 9 Sudoeste 15 Sur 0 -- -- 90
2019-12-13 07:00:00 13.9 10 Oeste 23 Oeste 0 -- -- 86
2019-12-13 06:00:00 13.2 7 Oeste 13 Sudoeste 0 -- -- 93
2019-12-13 05:00:00 13.2 5 Sudoeste 15 Sudoeste 0 -- -- 91
2019-12-13 04:00:00 13.5 8 Sudoeste 23 Oeste 0 -- -- 91
2019-12-13 03:00:00 13.1 9 Oeste 18 Oeste 0 -- -- 91
2019-12-13 02:00:00 12.8 9 Sudoeste 15 Sudoeste 0 -- -- 86
2019-12-13 01:00:00 13.1 6 Sur 15 Oeste 0 -- -- 83
2019-12-13 00:00:00 13 8 Sudoeste 18 Oeste 0 -- -- 83
2019-12-12 23:00:00 12.7 7 Sudoeste 18 Sudoeste 0 -- -- 81
2019-12-12 22:00:00 12.4 9 Sudoeste 14 Sudoeste 0 -- -- 81
2019-12-12 21:00:00 12.5 5 Sudoeste 12 Sur 0 -- -- 80
2019-12-12 20:00:00 12.9 5 Sudoeste 14 Sudoeste 0 -- -- 78
2019-12-12 19:00:00 13.9 7 Sudoeste 16 Sudoeste 0 -- -- 74
2019-12-12 18:00:00 14.6 10 Sudoeste 27 Sudoeste 0 -- -- 69
2019-12-12 17:00:00 16.1 12 Sudoeste 22 Sudoeste 0 -- -- 63
2019-12-12 16:00:00 16.3 5 Oeste 24 Oeste 0 -- -- 56
2019-12-12 15:00:00 17.5 12 Noroeste 31 Noroeste 0 -- -- 50
2019-12-12 14:00:00 17.4 12 Oeste 27 Oeste 0 -- -- 54
2019-12-12 13:00:00 15.5 7 Sur 14 Sur 0 -- -- 66
2019-12-12 12:00:00 13.5 6 Sur 12 Sur 0 -- -- 71
2019-12-12 11:00:00 10.5 4 Sur 10 Sur 0 -- -- 80
2019-12-12 10:00:00 7.6 4 Sur 11 Sudeste 0 -- -- 86
2019-12-12 09:00:00 5.1 0 Calma 5 Sur 0 -- -- 90
2019-12-12 08:00:00 4.8 2 Sur 7 Sudeste 0 -- -- 90
2019-12-12 07:00:00 4.9 2 Sudeste 9 Sudoeste 0 -- -- 89
2019-12-12 06:00:00 4.9 2 Norte 4 Nordeste 0 -- -- 92
2019-12-12 05:00:00 4.5 0 Calma 4 Norte 0 -- -- 91
2019-12-12 04:00:00 4.9 0 Calma 4 Norte 0 -- -- 90
2019-12-12 03:00:00 5.5 0 Calma 5 Norte 0 -- -- 89
2019-12-12 02:00:00 6.3 0 Calma 9 Noroeste 0 -- -- 88
2019-12-12 01:00:00 6.3 3 Noroeste 6 Noroeste 0 -- -- 91
2019-12-12 00:00:00 6.6 0 Calma 5 Norte 0 -- -- 90
2019-12-11 23:00:00 7.4 0 Calma 5 Norte 0 -- -- 89
2019-12-11 22:00:00 8.4 0 Calma 4 Noroeste 0 -- -- 87
2019-12-11 21:00:00 9.5 2 Norte 4 Noroeste 0 -- -- 82
2019-12-11 20:00:00 11.5 2 Noroeste 10 Norte 0 -- -- 75
2019-12-11 19:00:00 13.6 6 Norte 18 Noroeste 0 -- -- 66
2019-12-11 18:00:00 15.1 4 Norte 17 Norte 0 -- -- 74
2019-12-11 17:00:00 15.4 3 Noroeste 12 Noroeste 0 -- -- 75
2019-12-11 16:00:00 16.1 5 Sudoeste 16 Sur 0 -- -- 69
2019-12-11 15:00:00 15 9 Sudoeste 15 Sudoeste 0 -- -- 72
2019-12-11 14:00:00 14.5 7 Sur 14 Sudeste 0 -- -- 75
2019-12-11 13:00:00 13.6 6 Sur 11 Sur 0 -- -- 73
2019-12-11 12:00:00 12.9 2 Sudeste 6 Noroeste 0 -- -- 73
2019-12-11 11:00:00 10.1 0 Calma 9 Norte 0 -- -- 87
2019-12-11 10:00:00 7.5 3 Norte 6 Noroeste 0 -- -- 97
2019-12-11 09:00:00 6.8 0 Calma 10 Norte 0 -- -- 97
2019-12-11 08:00:00 5.9 2 Noroeste 6 Noroeste 0 -- -- 97
2019-12-11 07:00:00 5 0 Calma 2 Norte 0 -- -- 96
2019-12-11 06:00:00 5.2 0 Calma -- -- 0 -- -- 95
2019-12-11 05:00:00 5.8 0 Calma 4 Norte 0 -- -- 95
2019-12-11 04:00:00 5.9 0 Calma 2 Noroeste 0 -- -- 93
2019-12-11 03:00:00 6.5 0 Calma 3 Norte 0 -- -- 92
2019-12-11 02:00:00 7 0 Calma 3 Noroeste 0 -- -- 90
2019-12-11 01:00:00 7.6 0 Calma 5 Noroeste 0 -- -- 88
2019-12-11 00:00:00 8.2 0 Calma 4 Noroeste 0 -- -- 88
2019-12-10 23:00:00 9 0 Calma 2 Norte 0 -- -- 86
2019-12-10 22:00:00 9.9 0 Calma 6 Sudoeste 0 -- -- 83
2019-12-10 21:00:00 10.6 0 Calma 4 Sur 0 -- -- 79
2019-12-10 20:00:00 11.5 0 Calma 3 Sudeste 0 -- -- 75
2019-12-10 19:00:00 13.5 0 Calma 2 Oeste 0 -- -- 68
2019-12-10 18:00:00 16.7 0 Calma 4 Oeste 0 -- -- 58
2019-12-10 17:00:00 20.1 0 Calma 5 Este 0 -- -- 44
2019-12-10 16:00:00 20.3 4 Este 9 Este 0 -- -- 42
2019-12-10 15:00:00 19.8 2 Nordeste 14 Nordeste 0 -- -- 48
2019-12-10 14:00:00 18.3 7 Norte 19 Norte 0 -- -- 52
2019-12-10 13:00:00 17 10 Nordeste 22 Nordeste 0 -- -- 57
2019-12-10 12:00:00 15.2 10 Nordeste 19 Nordeste 0 -- -- 64
2019-12-10 11:00:00 13.2 7 Norte 16 Norte 0 -- -- 75
2019-12-10 10:00:00 10.9 5 Norte 13 Nordeste 0 -- -- 88
2019-12-10 09:00:00 8.3 3 Norte 15 Nordeste 0 -- -- 96
2019-12-10 08:00:00 7.6 3 Norte 7 Norte 0 -- -- 96
2019-12-10 07:00:00 7.6 3 Norte 10 Nordeste 0 -- -- 95
2019-12-10 06:00:00 8.2 2 Norte 9 Nordeste 0 -- -- 96
2019-12-10 05:00:00 8 3 Norte 5 Norte 0 -- -- 95
2019-12-10 04:00:00 8.5 2 Norte 6 Norte 0 -- -- 95
2019-12-10 03:00:00 9 3 Norte 10 Norte 0 -- -- 95
2019-12-10 02:00:00 9 2 Noroeste 5 Norte 0 -- -- 94
2019-12-10 01:00:00 9.6 3 Norte 7 Norte 0 -- -- 95
2019-12-10 00:00:00 9.5 0 Calma 3 Norte 0 -- -- 92
2019-12-09 23:00:00 10.6 0 Calma 2 Norte 0 -- -- 91
2019-12-09 22:00:00 11.5 0 Calma 4 Norte 0 -- -- 92
2019-12-09 21:00:00 11.6 0 Calma 3 Noroeste 0 -- -- 89
2019-12-09 20:00:00 12.6 2 Noroeste 3 Noroeste 0 -- -- 85
2019-12-09 19:00:00 14.5 0 Calma 4 Este 0 -- -- 78
2019-12-09 18:00:00 17 2 Nordeste 9 Nordeste 0 -- -- 70
2019-12-09 17:00:00 19 4 Este 12 Este 0 -- -- 64
2019-12-09 16:00:00 19.1 6 Este 12 Este 0 -- -- 64
2019-12-09 15:00:00 17.7 4 Nordeste 8 Este 0 -- -- 73
2019-12-09 14:00:00 17.5 4 Nordeste 8 Nordeste 0 -- -- 73
2019-12-09 13:00:00 17.2 3 Nordeste 6 Norte 0 -- -- 72
2019-12-09 12:00:00 17 0 Calma 6 Norte 0 -- -- 74
2019-12-09 11:00:00 15.2 2 Noroeste 7 Noroeste 0 -- -- 84
2019-12-09 10:00:00 13.4 0 Calma 2 Norte 0 -- -- 91
2019-12-09 09:00:00 12.5 0 Calma 3 Norte 0 -- -- 93
2019-12-09 08:00:00 12.3 0 Calma 2 Noroeste 0 -- -- 92
2019-12-09 07:00:00 12.2 0 Calma 3 Sudoeste 0 -- -- 93
2019-12-09 06:00:00 12.2 3 Sudoeste 8 Sudoeste 0 -- -- 92
2019-12-09 05:00:00 11.9 0 Calma 5 Oeste 0 -- -- 93
2019-12-09 04:00:00 11.5 3 Sudoeste 6 Sur 0 -- -- 94
2019-12-09 03:00:00 11.1 2 Sudoeste 4 Sudoeste 0 -- -- 94
2019-12-09 02:00:00 11 0 Calma 4 Sur 0 -- -- 93
2019-12-09 01:00:00 11.1 0 Calma 4 Sudoeste 0 -- -- 91
2019-12-09 00:00:00 11.7 0 Calma 3 Sudoeste 0 -- -- 89
2019-12-08 23:00:00 12.5 0 Calma 2 Sudoeste 0 -- -- 89
2019-12-08 22:00:00 12.8 0 Calma 5 Sudeste 0 -- -- 86
2019-12-08 21:00:00 13.4 3 Sudoeste 6 Sudoeste 0 -- -- 84
2019-12-08 20:00:00 13.7 0 Calma 5 Sudoeste 0 -- -- 79
2019-12-08 19:00:00 15.1 0 Calma 6 Sur 0 -- -- 75
2019-12-08 18:00:00 16.7 3 Sudoeste 9 Sudoeste 0 -- -- 66
2019-12-08 17:00:00 18.2 3 Sur 6 Sur 0 -- -- 59
2019-12-08 16:00:00 18.3 3 Sudoeste 7 Oeste 0 -- -- 58
2019-12-08 15:00:00 19.6 2 Noroeste 9 Oeste 0 -- -- 54
2019-12-08 14:00:00 18.7 3 Este 9 Nordeste 0 -- -- 57
2019-12-08 13:00:00 16.9 4 Nordeste 10 Este 0 -- -- 61
2019-12-08 12:00:00 15 5 Nordeste 12 Este 0 -- -- 67
2019-12-08 11:00:00 12.5 6 Nordeste 13 Norte 0 -- -- 76
2019-12-08 10:00:00 9.8 6 Norte 12 Norte 0 -- -- 91
2019-12-08 09:00:00 7.4 3 Noroeste 8 Norte 0 -- -- 96
2019-12-08 08:00:00 7.3 3 Norte 9 Norte 0 -- -- 95
2019-12-08 07:00:00 7.5 4 Norte 11 Norte 0 -- -- 95
2019-12-08 06:00:00 7.8 4 Norte 8 Norte 0 -- -- 96
2019-12-08 05:00:00 8 2 Norte 7 Norte 0 -- -- 95
2019-12-08 04:00:00 7.8 3 Norte 5 Norte 0 -- -- 95
2019-12-08 03:00:00 8.1 3 Norte 5 Noroeste 0 -- -- 94
2019-12-08 02:00:00 8.6 0 Calma 5 Norte 0 -- -- 93
2019-12-08 01:00:00 9 3 Norte 6 Norte 0 -- -- 93
2019-12-08 00:00:00 9.2 4 Noroeste 5 Norte 0 -- -- 92
2019-12-07 23:00:00 9.5 2 Norte 4 Norte 0 -- -- 90
2019-12-07 22:00:00 10.3 0 Calma 2 Oeste 0 -- -- 89
2019-12-07 21:00:00 11.1 0 Calma 0 Calma 0 -- -- 85
2019-12-07 20:00:00 12.2 0 Calma 2 Sudeste 0 -- -- 80
2019-12-07 19:00:00 14.2 0 Calma 5 Sudoeste 0 -- -- 73
2019-12-07 18:00:00 17.7 0 Calma 3 Sudoeste 0 -- -- 61
2019-12-07 17:00:00 20.4 2 Noroeste 7 Norte 0 -- -- 54
2019-12-07 16:00:00 20.9 2 Norte 8 Nordeste 0 -- -- 53
2019-12-07 15:00:00 20.3 5 Este 9 Este 0 -- -- 52
2019-12-07 14:00:00 19.2 5 Nordeste 13 Norte 0 -- -- 57
2019-12-07 13:00:00 18 7 Norte 14 Norte 0 -- -- 61
2019-12-07 12:00:00 16 7 Nordeste 14 Norte 0 -- -- 65
2019-12-07 11:00:00 13.8 6 Nordeste 13 Nordeste 0 -- -- 73
2019-12-07 10:00:00 10.8 2 Norte 14 Norte 0 -- -- 85
2019-12-07 09:00:00 8.1 3 Noroeste 8 Norte 0 -- -- 93
2019-12-07 08:00:00 8.3 3 Norte 10 Norte 0 -- -- 92
2019-12-07 07:00:00 8.3 3 Norte 8 Norte 0 -- -- 93
2019-12-07 06:00:00 8.1 2 Norte 8 Este 0 -- -- 90
2019-12-07 05:00:00 8.7 3 Nordeste 7 Nordeste 0 -- -- 93
2019-12-07 04:00:00 8.1 3 Norte 6 Norte 0 -- -- 93
2019-12-07 03:00:00 8.2 0 Calma 5 Norte 0 -- -- 91
2019-12-07 02:00:00 8.6 2 Norte 5 Noroeste 0 -- -- 91
2019-12-07 01:00:00 9 0 Calma 3 Noroeste 0 -- -- 88
2019-12-07 00:00:00 9.9 3 Noroeste 5 Norte 0 -- -- 86
2019-12-06 23:00:00 10.9 3 Norte 6 Norte 0 -- -- 81
2019-12-06 22:00:00 12.3 2 Norte 9 Nordeste 0 -- -- 77
2019-12-06 21:00:00 13.3 4 Norte 9 Norte 0 -- -- 74
2019-12-06 20:00:00 14.3 3 Norte 7 Nordeste 0 -- -- 69
2019-12-06 19:00:00 16.2 3 Norte 9 Este 0 -- -- 61
2019-12-06 18:00:00 18.2 6 Nordeste 15 Nordeste 0 -- -- 53
2019-12-06 17:00:00 20 7 Nordeste 19 Este 0 -- -- 48
2019-12-06 16:00:00 20.1 7 Nordeste 18 Nordeste 0 -- -- 49
2019-12-06 15:00:00 20.2 8 Nordeste 18 Este 0 -- -- 49
2019-12-06 14:00:00 19.4 10 Nordeste 18 Este 0 -- -- 51
2019-12-06 13:00:00 19 7 Nordeste 21 Este 0 -- -- 52
2019-12-06 12:00:00 17.3 10 Nordeste 20 Este 0 -- -- 56
2019-12-06 11:00:00 14.7 6 Nordeste 16 Norte 0 -- -- 65
2019-12-06 10:00:00 12.1 6 Nordeste 14 Nordeste 0 -- -- 74
2019-12-06 09:00:00 9.1 5 Norte 10 Nordeste 0 -- -- 87
2019-12-06 08:00:00 8.6 4 Norte 9 Norte 0 -- -- 87
2019-12-06 07:00:00 9.3 4 Norte 10 Norte 0 -- -- 84
2019-12-06 06:00:00 10.6 3 Nordeste 15 Nordeste 0 -- -- 78
2019-12-06 05:00:00 10.8 4 Nordeste 14 Este 0 -- -- 78
2019-12-06 04:00:00 11 5 Nordeste 11 Nordeste 0 -- -- 78
2019-12-06 03:00:00 11.5 4 Nordeste 14 Nordeste 0 -- -- 77
2019-12-06 02:00:00 11.9 5 Nordeste 14 Nordeste 0 -- -- 77
2019-12-06 01:00:00 12.3 5 Norte 13 Nordeste 0 -- -- 76
2019-12-06 00:00:00 12.7 5 Nordeste 13 Nordeste 0 -- -- 74
2019-12-05 23:00:00 12.9 6 Nordeste 15 Nordeste 0 -- -- 71
2019-12-05 22:00:00 13.3 6 Nordeste 16 Este 0 -- -- 69
2019-12-05 21:00:00 13.4 8 Nordeste 20 Este 0 -- -- 69
2019-12-05 20:00:00 13.9 7 Nordeste 18 Este 0 -- -- 67
2019-12-05 19:00:00 14.9 9 Nordeste 23 Nordeste 0 -- -- 64
2019-12-05 18:00:00 16.1 9 Nordeste 24 Nordeste 0 -- -- 60
2019-12-05 17:00:00 17.6 10 Este 26 Este 0 -- -- 54
2019-12-05 16:00:00 18 12 Nordeste 32 Este 0 -- -- 54
2019-12-05 15:00:00 17.7 15 Este 32 Este 0 -- -- 53
2019-12-05 14:00:00 17.3 14 Nordeste 28 Este 0 -- -- 60
2019-12-05 13:00:00 16.3 11 Nordeste 27 Este 0 -- -- 66
2019-12-05 12:00:00 14.7 8 Nordeste 17 Nordeste 0 -- -- 68
2019-12-05 11:00:00 12.1 6 Nordeste 15 Norte 0 -- -- 75
2019-12-05 10:00:00 9.1 4 Norte 15 Noroeste 0 -- -- 88
2019-12-05 09:00:00 6.8 6 Norte 11 Norte 0 -- -- 97
2019-12-05 08:00:00 6.2 4 Norte 9 Norte 0 -- -- 97
2019-12-05 07:00:00 5.7 2 Noroeste 5 Norte 0 -- -- 96
2019-12-05 06:00:00 6.3 4 Norte 9 Norte 0 -- -- 96
2019-12-05 05:00:00 6 0 Calma 5 Norte 0 -- -- 95
2019-12-05 04:00:00 6.6 3 Norte 8 Norte 0 -- -- 95
2019-12-05 03:00:00 6.5 0 Calma 9 Norte 0 -- -- 95
2019-12-05 02:00:00 6.3 2 Norte 4 Norte 0 -- -- 93
2019-12-05 01:00:00 6.8 0 Calma 3 Sudoeste 0 -- -- 91
2019-12-05 00:00:00 7.8 0 Calma 6 Sudoeste 0 -- -- 89
2019-12-04 23:00:00 8.7 3 Sur 9 Sudoeste 0 -- -- 88
2019-12-04 22:00:00 9.5 2 Sur 6 Sudoeste 0 -- -- 84
2019-12-04 21:00:00 9.2 3 Sur 9 Sur 0 -- -- 82
2019-12-04 20:00:00 9.8 0 Calma 5 Sudoeste 0 -- -- 81
2019-12-04 19:00:00 11.3 3 Sur 8 Sur 0 -- -- 74
2019-12-04 18:00:00 13.1 3 Sur 22 Sudoeste 0 -- -- 71
2019-12-04 17:00:00 14.7 10 Sur 20 Sur 0 -- -- 60
2019-12-04 16:00:00 16.3 6 Sudoeste 14 Sudoeste 0 -- -- 60
2019-12-04 15:00:00 16 8 Sur 18 Sur 0 -- -- 60
2019-12-04 14:00:00 16.3 8 Sur 18 Sudoeste 0 -- -- 67
2019-12-04 13:00:00 16.2 5 Sur 14 Sudeste 0 -- -- 61
2019-12-04 12:00:00 15.1 6 Sur 14 Este 0 -- -- 64
2019-12-04 11:00:00 13.8 6 Este 12 Este 0 -- -- 69
2019-12-04 10:00:00 11.8 6 Nordeste 11 Este 0 -- -- 82
2019-12-04 09:00:00 10.4 0 Calma 5 Noroeste 0 -- -- 89
2019-12-04 08:00:00 10.6 3 Norte 7 Norte 0 -- -- 87
2019-12-04 07:00:00 10.1 0 Calma 6 Noroeste 0 -- -- 90
2019-12-04 06:00:00 10.1 3 Norte 5 Norte 0 -- -- 87
2019-12-04 05:00:00 11 0 Calma 5 Nordeste 0 -- -- 85
2019-12-04 04:00:00 10.7 2 Noroeste 4 Noroeste 0 -- -- 89
2019-12-04 03:00:00 10.4 0 Calma 3 Noroeste 0 -- -- 87
2019-12-04 02:00:00 10.7 0 Calma 3 Noroeste 0 -- -- 83
2019-12-04 01:00:00 11.9 2 Norte 6 Norte 0 -- -- 78
2019-12-04 00:00:00 12.1 3 Norte 9 Norte 0 -- -- 78
2019-12-03 23:00:00 11.9 3 Noroeste 8 Norte 0 -- -- 79
2019-12-03 22:00:00 13 3 Norte 11 Norte 0 -- -- 74
2019-12-03 21:00:00 13.8 5 Norte 9 Norte 0 -- -- 73
2019-12-03 20:00:00 15.5 3 Norte 6 Norte 0 -- -- 69
2019-12-03 19:00:00 16.8 2 Oeste 10 Este 0 -- -- 65
2019-12-03 18:00:00 17.9 3 Nordeste 10 Este 0 -- -- 60
2019-12-03 17:00:00 19.4 5 Este 14 Nordeste 0 -- -- 53
2019-12-03 16:00:00 19.7 6 Nordeste 18 Nordeste 0 -- -- 51
2019-12-03 15:00:00 19.3 9 Nordeste 22 Este 0 -- -- 52
2019-12-03 14:00:00 19.1 9 Nordeste 23 Nordeste 0 -- -- 51
2019-12-03 13:00:00 17.8 15 Nordeste 27 Norte 0 -- -- 54
2019-12-03 12:00:00 16.9 8 Norte 17 Norte 0 -- -- 61
2019-12-03 11:00:00 15.2 6 Norte 14 Norte 0 -- -- 66
2019-12-03 10:00:00 12.4 5 Norte 13 Noroeste 0 -- -- 76
2019-12-03 09:00:00 9.9 4 Norte 9 Noroeste 0 -- -- 87
2019-12-03 08:00:00 9.1 4 Norte 10 Norte 0 -- -- 89
2019-12-03 07:00:00 9 3 Norte 9 Norte 0 -- -- 89
2019-12-03 06:00:00 9.5 4 Norte 9 Norte 0 -- -- 89
2019-12-03 05:00:00 9.7 3 Nordeste 11 Norte 0 -- -- 88
2019-12-03 04:00:00 9.6 4 Norte 8 Norte 0 -- -- 90
2019-12-03 03:00:00 10.1 5 Norte 12 Noroeste 0 -- -- 89
2019-12-03 02:00:00 10.8 4 Norte 13 Nordeste 0 -- -- 87
2019-12-03 01:00:00 11.2 8 Nordeste 20 Nordeste 0 -- -- 88
2019-12-03 00:00:00 10.8 4 Norte 5 Norte 0 -- -- 90
2019-12-02 23:00:00 12.1 2 Norte 12 Norte 0 -- -- 85
2019-12-02 22:00:00 13.1 4 Norte 12 Nordeste 0 -- -- 85
2019-12-02 21:00:00 13.7 4 Nordeste 12 Este 0 -- -- 84
2019-12-02 20:00:00 13.9 4 Este 14 Este 0 -- -- 79
2019-12-02 19:00:00 14.1 4 Este 24 Este 0 -- -- 74
2019-12-02 18:00:00 15.7 8 Este 22 Este 0 -- -- 74
2019-12-02 17:00:00 16.8 10 Este 20 Este 0 -- -- 65
2019-12-02 16:00:00 15.9 10 Este 23 Este 0 -- -- 65
2019-12-02 15:00:00 15.7 14 Este 27 Este 0 -- -- 70
2019-12-02 14:00:00 16.1 16 Este 27 Nordeste 0 -- -- 71
2019-12-02 13:00:00 15.2 13 Este 31 Este 0 -- -- 74
2019-12-02 12:00:00 13.8 11 Nordeste 23 Nordeste 0 -- -- 82
2019-12-02 11:00:00 12.8 6 Nordeste 17 Sudeste 0 -- -- 88
2019-12-02 10:00:00 11.9 8 Nordeste 19 Este 0 -- -- 92
2019-12-02 09:00:00 11.1 9 Nordeste 21 Nordeste 0 -- -- 93
2019-12-02 08:00:00 10.9 6 Nordeste 22 Nordeste 0 -- -- 93
2019-12-02 07:00:00 11.1 10 Nordeste 24 Este 0 -- -- 93
2019-12-02 06:00:00 11.2 8 Nordeste 18 Nordeste 0 -- -- 94
2019-12-02 05:00:00 11.6 6 Nordeste 12 Nordeste 0 -- -- 94
2019-12-02 04:00:00 11.4 0 Calma 3 Nordeste 0 -- -- 94
2019-12-02 03:00:00 11.5 0 Calma 3 Sudoeste 0 -- -- 93
2019-12-02 02:00:00 11.7 0 Calma 6 Sur 0 -- -- 92
2019-12-02 01:00:00 12 0 Calma 6 Noroeste 0 -- -- 90
2019-12-02 00:00:00 12.2 0 Calma 13 Oeste 0 -- -- 90
2019-12-01 23:00:00 12.3 4 Oeste 19 Oeste 0.2 -- -- 89
2019-12-01 22:00:00 12.5 6 Sudoeste 17 Oeste 0 -- -- 91
2019-12-01 21:00:00 13 4 Sur 12 Sudoeste 0 -- -- 93
2019-12-01 20:00:00 13.3 5 Sur 18 Sudoeste 0.2 -- -- 92
2019-12-01 19:00:00 14 10 Sudoeste 21 Sudoeste 0 -- -- 84
2019-12-01 18:00:00 14.3 7 Sudoeste 18 Sudoeste 0 -- -- 84
2019-12-01 17:00:00 15.6 8 Sudoeste 18 Oeste 0 -- -- 78
2019-12-01 16:00:00 15.4 13 Oeste 24 Oeste 0 -- -- 86
2019-12-01 15:00:00 13.9 5 Sudoeste 27 Sudoeste 5 -- -- 88
2019-12-01 14:00:00 16.3 15 Sudoeste 31 Sudoeste 0 -- -- 73
2019-12-01 13:00:00 15.9 13 Sudoeste 23 Sudoeste 0 -- -- 85
2019-12-01 12:00:00 12.8 8 Sudoeste 16 Sudoeste 0 -- -- 99
2019-12-01 11:00:00 11.7 6 Sur 12 Sur 0 -- -- 99
2019-12-01 10:00:00 11 6 Sur 11 Sur 0 -- -- 99
2019-12-01 09:00:00 10.3 3 Sur 6 Sur 0 -- -- 97
2019-12-01 08:00:00 10.4 0 Calma 5 Sudeste 0 -- -- 96
2019-12-01 07:00:00 10.7 0 Calma 8 Noroeste 0 -- -- 94
2019-12-01 06:00:00 11.8 3 Norte 13 Oeste 0 -- -- 94
2019-12-01 05:00:00 12 0 Calma 4 Noroeste 0 -- -- 93
2019-12-01 04:00:00 13.1 0 Calma 10 Oeste 0 -- -- 90
2019-12-01 03:00:00 14.5 4 Oeste 10 Oeste 0 -- -- 91
2019-12-01 02:00:00 14.8 4 Oeste 15 Oeste 0 -- -- 92
2019-12-01 01:00:00 14.9 7 Oeste 17 Sudoeste 0 -- -- 94
2019-12-01 00:00:00 15 7 Sudoeste 18 Oeste 0 -- -- 93
2019-11-30 23:00:00 15.6 8 Sudoeste 19 Sudoeste 0 -- -- 90
2019-11-30 22:00:00 15.7 6 Sudoeste 14 Sudoeste 0 -- -- 84
2019-11-30 21:00:00 16.2 9 Sudoeste 19 Oeste 0 -- -- 77
2019-11-30 20:00:00 16.8 8 Oeste 23 Oeste 0 -- -- 72
2019-11-30 19:00:00 17.6 5 Oeste 12 Oeste 0 -- -- 69
2019-11-30 18:00:00 18.3 6 Oeste 15 Noroeste 0 -- -- 66
2019-11-30 17:00:00 19.3 8 Noroeste 17 Oeste 0 -- -- 63
2019-11-30 16:00:00 20.1 6 Oeste 20 Oeste 0 -- -- 61
2019-11-30 15:00:00 21.1 6 Oeste 15 Oeste 0 -- -- 59
2019-11-30 14:00:00 21.3 2 Nordeste 8 Noroeste 0 -- -- 59
2019-11-30 13:00:00 20.1 2 Noroeste 12 Norte 0 -- -- 62
2019-11-30 12:00:00 18.3 4 Norte 9 Norte 0 -- -- 68
2019-11-30 11:00:00 16 4 Norte 10 Norte 0 -- -- 77
2019-11-30 10:00:00 13.6 4 Norte 8 Norte 0 -- -- 95
2019-11-30 09:00:00 10.3 3 Noroeste 5 Noroeste 0 -- -- 99
2019-11-30 08:00:00 9.7 2 Norte 5 Norte 0 -- -- 97
2019-11-30 07:00:00 9.9 4 Noroeste 6 Noroeste 0 -- -- 96
2019-11-30 06:00:00 10.3 0 Calma 5 Norte 0 -- -- 96
2019-11-30 05:00:00 10.7 0 Calma 6 Norte 0 -- -- 96
2019-11-30 04:00:00 10.9 3 Norte 6 Norte 0 -- -- 95
2019-11-30 03:00:00 11.3 0 Calma 4 Norte 0 -- -- 93
2019-11-30 02:00:00 12.1 2 Norte 5 Norte 0 -- -- 93
2019-11-30 01:00:00 12.6 3 Norte 10 Norte 0 -- -- 93
2019-11-30 00:00:00 13.1 4 Norte 9 Noroeste 0 -- -- 92
2019-11-29 23:00:00 13 5 Norte 8 Norte 0 -- -- 93
2019-11-29 22:00:00 13.1 4 Norte 6 Norte 0 -- -- 91
2019-11-29 21:00:00 13.4 3 Norte 4 Norte 0 -- -- 88
2019-11-29 20:00:00 14.4 0 Calma 3 Noroeste 0 -- -- 84
2019-11-29 19:00:00 16 0 Calma 0 Calma 0 -- -- 78
2019-11-29 18:00:00 18.5 0 Calma 7 Este 0 -- -- 69
2019-11-29 17:00:00 20.1 4 Este 13 Este 0 -- -- 59
2019-11-29 16:00:00 20.7 8 Nordeste 15 Nordeste 0 -- -- 60
2019-11-29 15:00:00 20.9 6 Nordeste 14 Nordeste 0 -- -- 60
2019-11-29 14:00:00 20.8 5 Nordeste 13 Este 0 -- -- 64
2019-11-29 13:00:00 19.1 3 Nordeste 12 Norte 0 -- -- 69
2019-11-29 12:00:00 17.1 5 Norte 12 Nordeste 0 -- -- 76
2019-11-29 11:00:00 15.1 8 Norte 14 Norte 0 -- -- 81
2019-11-29 10:00:00 12.6 6 Nordeste 12 Nordeste 0 -- -- 96
2019-11-29 09:00:00 10.4 3 Norte 8 Norte 0 -- -- 99
2019-11-29 08:00:00 9.8 4 Norte 8 Norte 0 -- -- 98
2019-11-29 07:00:00 10 4 Norte 8 Norte 0 -- -- 98
2019-11-29 06:00:00 10 3 Norte 6 Norte 0 -- -- 98
2019-11-29 05:00:00 10.1 3 Norte 6 Norte 0 -- -- 98
2019-11-29 04:00:00 10.4 0 Calma 7 Norte 0 -- -- 97
2019-11-29 03:00:00 11.1 4 Norte 8 Norte 0 -- -- 97
2019-11-29 02:00:00 10.6 3 Norte 5 Norte 0 -- -- 96
2019-11-29 01:00:00 11.1 0 Calma 6 Norte 0 -- -- 96
2019-11-29 00:00:00 11.2 0 Calma 4 Noroeste 0 -- -- 95
2019-11-28 23:00:00 11.6 0 Calma 2 Este 0 -- -- 93
2019-11-28 22:00:00 12.3 0 Calma 4 Sudoeste 0 -- -- 92
2019-11-28 21:00:00 13 0 Calma 3 Sudoeste 0 -- -- 90
2019-11-28 20:00:00 14.1 0 Calma 3 Sudoeste 0 -- -- 86
2019-11-28 19:00:00 15.8 2 Oeste 8 Sudoeste 0 -- -- 80
2019-11-28 18:00:00 17.6 3 Sudoeste 6 Sudoeste 0 -- -- 71
2019-11-28 17:00:00 19.5 0 Calma 6 Sur 0 -- -- 61
2019-11-28 16:00:00 19.9 2 Norte 8 Oeste 0 -- -- 62
2019-11-28 15:00:00 19.5 3 Sudoeste 8 Oeste 0 -- -- 64
2019-11-28 14:00:00 18.8 3 Norte 8 Noroeste 0 -- -- 74
2019-11-28 13:00:00 16.4 3 Nordeste 6 Nordeste 0 -- -- 84
2019-11-28 12:00:00 14.5 2 Sur 8 Sudeste 0 -- -- 93
2019-11-28 11:00:00 13.9 3 Este 8 Norte 0 -- -- 96
2019-11-28 10:00:00 13.2 0 Calma 8 Nordeste 0 -- -- 98
2019-11-28 09:00:00 12.6 3 Norte 9 Norte 0 -- -- 98
2019-11-28 08:00:00 12.5 4 Norte 8 Norte 0 -- -- 99
2019-11-28 07:00:00 12.4 2 Norte 6 Norte 0 -- -- 99
2019-11-28 06:00:00 12.8 0 Calma 6 Este 0 -- -- 99
2019-11-28 05:00:00 12.5 2 Este 4 Este 0 -- -- 99
2019-11-28 04:00:00 12.3 0 Calma 7 Oeste 0 -- -- 98
2019-11-28 03:00:00 12.3 0 Calma 7 Este 0 -- -- 98
2019-11-28 02:00:00 12 0 Calma 8 Sudoeste 0 -- -- 96
2019-11-28 01:00:00 12.5 0 Calma 5 Sudeste 0 -- -- 95
2019-11-28 00:00:00 13.2 3 Sudeste 6 Sudoeste 0 -- -- 93
2019-11-27 23:00:00 14.1 3 Oeste 13 Oeste 0 -- -- 92
2019-11-27 22:00:00 14.4 0 Calma 15 Oeste 0 -- -- 88
2019-11-27 21:00:00 15.2 6 Oeste 13 Oeste 0 -- -- 86
2019-11-27 20:00:00 16.1 5 Oeste 10 Oeste 0 -- -- 83
2019-11-27 19:00:00 16.4 4 Oeste 9 Oeste 0 -- -- 81
2019-11-27 18:00:00 17 3 Oeste 13 Oeste 0 -- -- 80
2019-11-27 17:00:00 17.9 5 Oeste 13 Sudoeste 0 -- -- 75
2019-11-27 16:00:00 18.4 6 Oeste 19 Noroeste 0 -- -- 76
2019-11-27 15:00:00 18.7 5 Oeste 12 Oeste 0 -- -- 75
2019-11-27 14:00:00 17.9 3 Oeste 6 Noroeste 0 -- -- 79
2019-11-27 06:00:00 13.9 3 Sur 10 Sudoeste 0 -- -- 99
2019-11-27 05:00:00 13.8 4 Sudoeste 8 Sudoeste 0 -- -- 98
2019-11-27 04:00:00 14.2 4 Sudoeste 13 Oeste 0 -- -- 97
2019-11-27 03:00:00 14.7 5 Oeste 10 Oeste 0 -- -- 97
2019-11-27 02:00:00 15.3 5 Sudoeste 14 Sudoeste 0 -- -- 97
2019-11-27 01:00:00 16 8 Sudoeste 26 Sudoeste 0 -- -- 97
2019-11-27 00:00:00 16.2 12 Sudoeste 28 Sudoeste 0 -- -- 97
2019-11-26 23:00:00 16.3 15 Sudoeste 30 Sudoeste 0.2 -- -- 96
2019-11-26 22:00:00 16.6 14 Sudoeste 30 Sudoeste 0 -- -- 95
2019-11-26 21:00:00 16.4 12 Sudoeste 23 Sur 0 -- -- 95
2019-11-26 20:00:00 16.9 9 Sur 20 Sudoeste 0 -- -- 93
2019-11-26 19:00:00 17.3 10 Sudoeste 22 Sudoeste 0 -- -- 88
2019-11-26 18:00:00 18.1 8 Sudoeste 24 Sudoeste 0 -- -- 86
2019-11-26 17:00:00 19 8 Sudoeste 15 Oeste 0 -- -- 81
2019-11-26 16:00:00 18.7 9 Oeste 19 Oeste 0 -- -- 90
2019-11-26 15:00:00 18.2 5 Oeste 14 Sudoeste 0 -- -- 98
2019-11-26 14:00:00 17.1 4 Sudoeste 13 Sudoeste 0 -- -- 99
2019-11-26 13:00:00 16.3 6 Sur 10 Sudoeste 0 -- -- 100
2019-11-26 12:00:00 15.6 5 Sudoeste 10 Sur 0 -- -- 100
2019-11-26 11:00:00 15.1 4 Sur 7 Sudoeste 0 -- -- 100
2019-11-26 10:00:00 14.7 0 Calma 5 Este 0 -- -- 100
2019-11-26 09:00:00 14.2 0 Calma 6 Sudoeste 0 -- -- 100
2019-11-26 08:00:00 14.1 2 Sudoeste 5 Sur 0.2 -- -- 100
2019-11-26 07:00:00 13.9 2 Sur 5 Sudoeste 0 -- -- 99
2019-11-26 06:00:00 14 2 Sudoeste 9 Oeste 0 -- -- 99
2019-11-26 05:00:00 14 4 Sudoeste 8 Sudoeste 0 -- -- 99
2019-11-26 04:00:00 14.4 3 Sudoeste 5 Sudoeste 0 -- -- 98
2019-11-26 03:00:00 14.6 2 Sur 3 Sudoeste 0 -- -- 98
2019-11-26 02:00:00 14.3 0 Calma 4 Noroeste 0 -- -- 97
2019-11-26 01:00:00 15.2 0 Calma 7 Oeste 0 -- -- 97
2019-11-26 00:00:00 15.9 2 Sudoeste 10 Noroeste 0 -- -- 97
2019-11-25 23:00:00 16.1 4 Sudeste 10 Sudoeste 0 -- -- 97
2019-11-25 22:00:00 16.5 6 Sudoeste 14 Sudoeste 0 -- -- 97
2019-11-25 21:00:00 17 4 Sudoeste 10 Sudoeste 0 -- -- 97
2019-11-25 20:00:00 17.1 6 Sur 14 Sudoeste 0 -- -- 96
2019-11-25 19:00:00 17.2 7 Sudoeste 17 Sudoeste 0 -- -- 96
2019-11-25 18:00:00 17.4 7 Sudoeste 21 Sudoeste 0 -- -- 96
2019-11-25 17:00:00 17.4 9 Sudoeste 24 Oeste 0 -- -- 95
2019-11-25 16:00:00 17.5 13 Sudoeste 29 Oeste 0 -- -- 95
2019-11-25 15:00:00 17.4 12 Sudoeste 24 Sur 0 -- -- 97
2019-11-25 14:00:00 17.1 12 Sudoeste 26 Sudoeste 0.2 -- -- 97
2019-11-25 13:00:00 16.7 8 Sudoeste 20 Sudoeste 0.2 -- -- 97
2019-11-25 12:00:00 16.1 9 Sudoeste 20 Sudoeste 0.2 -- -- 97
2019-11-25 11:00:00 14.9 8 Sudoeste 15 Sur 0 -- -- 96
2019-11-25 10:00:00 14.2 8 Sudoeste 20 Sudoeste 0 -- -- 96
2019-11-25 09:00:00 13.3 4 Sur 9 Sudoeste 0 -- -- 95
2019-11-25 08:00:00 12.9 2 Sudoeste 9 Sur 0 -- -- 95
2019-11-25 07:00:00 12.6 3 Sudoeste 6 Sudoeste 0 -- -- 95
2019-11-25 06:00:00 12.3 2 Sur 6 Sur 0 -- -- 95
2019-11-25 05:00:00 12.2 2 Sur 6 Sur 0 -- -- 95
2019-11-25 04:00:00 12 4 Sur 6 Sur 0 -- -- 94
2019-11-25 03:00:00 11.7 2 Sur 6 Sur 0 -- -- 93
2019-11-25 02:00:00 11.6 4 Sudeste 7 Sudeste 0 -- -- 93
2019-11-25 01:00:00 11.6 3 Sur 7 Sur 0 -- -- 92
2019-11-25 00:00:00 11.4 0 Calma 8 Sur 0 -- -- 92
2019-11-24 23:00:00 11.4 4 Sur 6 Sudoeste 0 -- -- 91
2019-11-24 22:00:00 11.8 4 Sur 8 Sudoeste 0 -- -- 86
2019-11-24 21:00:00 13.3 5 Sudoeste 18 Oeste 0 -- -- 80
2019-11-24 20:00:00 14.1 9 Sudoeste 18 Sudoeste 0 -- -- 76
2019-11-24 19:00:00 15 8 Sudoeste 16 Oeste 0 -- -- 71
2019-11-24 18:00:00 16.1 6 Oeste 18 Sudoeste 0 -- -- 66
2019-11-24 17:00:00 16.8 6 Oeste 18 Sur 0 -- -- 62
2019-11-24 16:00:00 17.7 11 Sur 18 Sudoeste 0 -- -- 61
2019-11-24 15:00:00 17.4 8 Sur 17 Sudoeste 0 -- -- 61
2019-11-24 14:00:00 16.8 5 Sur 14 Sudoeste 0 -- -- 64
2019-11-24 13:00:00 15.8 4 Sudeste 10 Sudeste 0 -- -- 63
2019-11-24 12:00:00 14.4 3 Sudoeste 8 Sudoeste 0 -- -- 68
2019-11-24 11:00:00 12.9 0 Calma 6 Sudoeste 0 -- -- 74
2019-11-24 10:00:00 10.1 0 Calma 3 Norte 0 -- -- 93
2019-11-24 09:00:00 6.6 0 Calma 2 Oeste 0 -- -- 97
2019-11-24 08:00:00 5.9 0 Calma 3 Noroeste 0 -- -- 95
2019-11-24 07:00:00 6.3 0 Calma 2 Sudeste 0 -- -- 94
2019-11-24 06:00:00 6.9 0 Calma 5 Sudoeste 0 -- -- 92
2019-11-24 05:00:00 7.4 0 Calma 4 Sudeste 0 -- -- 89
2019-11-24 04:00:00 8.5 0 Calma 6 Sudoeste 0 -- -- 86
2019-11-24 03:00:00 8.9 0 Calma 6 Oeste 0 -- -- 85
2019-11-24 02:00:00 9.3 3 Oeste 7 Oeste 0 -- -- 83
2019-11-24 01:00:00 9.5 3 Oeste 9 Oeste 0 -- -- 83
2019-11-24 00:00:00 9.9 2 Sudoeste 6 Noroeste 0 -- -- 80
2019-11-23 23:00:00 10.9 0 Calma 9 Oeste 0 -- -- 75
2019-11-23 22:00:00 12.2 4 Oeste 14 Noroeste 0 -- -- 70
2019-11-23 21:00:00 12.7 5 Noroeste 16 Oeste 0 -- -- 68
2019-11-23 20:00:00 13 4 Noroeste 12 Noroeste 0 -- -- 68
2019-11-23 19:00:00 13.9 5 Noroeste 12 Oeste 0 -- -- 68
2019-11-23 18:00:00 16.2 4 Noroeste 23 Noroeste 0 -- -- 57
2019-11-23 17:00:00 18.5 11 Noroeste 26 Noroeste 0 -- -- 48
2019-11-23 16:00:00 19.4 14 Noroeste 28 Noroeste 0 -- -- 48
2019-11-23 15:00:00 18.8 16 Noroeste 30 Noroeste 0 -- -- 50
2019-11-23 14:00:00 19.2 14 Noroeste 31 Noroeste 0 -- -- 50
2019-11-23 13:00:00 18.4 13 Noroeste 29 Noroeste 0 -- -- 54
2019-11-23 12:00:00 17.6 11 Oeste 24 Oeste 0 -- -- 62
2019-11-23 11:00:00 16.4 9 Noroeste 22 Noroeste 0 -- -- 71
2019-11-23 10:00:00 13.5 8 Sudoeste 19 Sudoeste 0 -- -- 87
2019-11-23 09:00:00 11.7 8 Sudoeste 17 Oeste 0 -- -- 93
2019-11-23 08:00:00 11.6 9 Sudoeste 17 Sudoeste 0 -- -- 92
2019-11-23 07:00:00 12.3 6 Sudoeste 17 Oeste 0 -- -- 90
2019-11-23 06:00:00 12.9 8 Oeste 23 Oeste 0 -- -- 87
2019-11-23 05:00:00 12.6 9 Sudoeste 16 Sudoeste 0 -- -- 90
2019-11-23 04:00:00 12.4 6 Sudoeste 15 Sur 0 -- -- 89
2019-11-23 03:00:00 13 5 Sur 21 Sur 0 -- -- 90
2019-11-23 02:00:00 13.5 11 Sur 23 Sudoeste 0 -- -- 88
2019-11-23 01:00:00 13.4 13 Sudoeste 19 Sudoeste 0 -- -- 90
2019-11-23 00:00:00 13.8 10 Sudoeste 20 Sudoeste 0 -- -- 90
2019-11-22 23:00:00 13.4 8 Sudoeste 16 Sudoeste 0 -- -- 93
2019-11-22 22:00:00 13.8 7 Sudoeste 17 Oeste 0 -- -- 92
2019-11-22 21:00:00 14.1 6 Sudoeste 13 Sudoeste 0 -- -- 89
2019-11-22 20:00:00 15.1 6 Sudoeste 20 Oeste 0 -- -- 87
2019-11-22 19:00:00 16 11 Oeste 39 Oeste 0.2 -- -- 88
2019-11-22 18:00:00 17.6 21 Oeste 58 Oeste 1 -- -- 93
2019-11-22 17:00:00 18 25 Sudoeste 61 Sudoeste 0.2 -- -- 91
2019-11-22 16:00:00 17.9 26 Sudoeste 52 Sudoeste 0 -- -- 91
2019-11-22 15:00:00 17.6 22 Sudoeste 53 Sudoeste 0.2 -- -- 94
2019-11-22 14:00:00 17.1 25 Sudoeste 46 Sudoeste 2.8 -- -- 96
2019-11-22 13:00:00 17.1 20 Sudoeste 49 Sudoeste 0.4 -- -- 97
2019-11-22 12:00:00 16.6 17 Sudoeste 37 Sudoeste 0.6 -- -- 98
2019-11-22 11:00:00 16.1 14 Sur 26 Sur 0 -- -- 99
2019-11-22 10:00:00 15.3 7 Sur 14 Sur 0 -- -- 99
2019-11-22 09:00:00 14.3 4 Sur 10 Sur 0 -- -- 99
2019-11-22 08:00:00 13.8 2 Sur 8 Sudeste 0 -- -- 99
2019-11-22 07:00:00 13.6 2 Oeste 4 Oeste 0.2 -- -- 98
2019-11-22 06:00:00 13.4 0 Calma 2 Oeste 0 -- -- 98
2019-11-22 05:00:00 13.5 0 Calma 3 Sudeste 0 -- -- 98
2019-11-22 04:00:00 13.7 0 Calma 5 Noroeste 0 -- -- 98
2019-11-22 03:00:00 13.7 0 Calma 5 Sudoeste 0 -- -- 98
2019-11-22 02:00:00 13.6 2 Sur 4 Oeste 0 -- -- 98
2019-11-22 01:00:00 13.8 0 Calma 8 Sudoeste 0 -- -- 98
2019-11-22 00:00:00 14 3 Oeste 8 Sur 0 -- -- 98
2019-11-21 23:00:00 14 4 Sur 13 Sudoeste 0 -- -- 97
2019-11-21 22:00:00 14.5 5 Sudoeste 14 Sudoeste 0 -- -- 97
2019-11-21 21:00:00 14.7 7 Sudoeste 13 Sudoeste 0 -- -- 97
2019-11-21 20:00:00 14.7 5 Sudoeste 13 Sudoeste 0 -- -- 97
2019-11-21 19:00:00 14.6 0 Calma 3 Sudeste 0 -- -- 97
2019-11-21 18:00:00 14.9 0 Calma 2 Nordeste 0 -- -- 97
2019-11-21 17:00:00 14.9 2 Norte 4 Norte 0 -- -- 97
2019-11-21 16:00:00 14.5 2 Norte 9 Noroeste 0.6 -- -- 97
2019-11-21 15:00:00 14.1 5 Noroeste 30 Noroeste 15.4 -- -- 96
2019-11-21 14:00:00 14.4 5 Noroeste 21 Norte 5.2 -- -- 96
2019-11-21 13:00:00 15 3 Sudoeste 9 Sudoeste 1 -- -- 97
2019-11-21 12:00:00 14.3 3 Norte 6 Norte 0 -- -- 97
2019-11-21 11:00:00 13.7 4 Oeste 8 Noroeste 0 -- -- 98
2019-11-21 10:00:00 12.2 0 Calma 4 Oeste 0 -- -- 99
2019-11-21 09:00:00 11.5 0 Calma 4 Norte 0.2 -- -- 98
2019-11-21 08:00:00 -- -- -- -- -- -- -- -- --
2019-11-21 07:00:00 -- -- -- -- -- -- -- -- --
2019-11-21 06:00:00 -- -- -- -- -- -- -- -- --
2019-11-21 05:00:00 -- -- -- -- -- -- -- -- --
2019-11-21 04:00:00 -- -- -- -- -- -- -- -- --
2019-11-21 03:00:00 -- -- -- -- -- -- -- -- --
2019-11-21 02:00:00 -- -- -- -- -- -- -- -- --
2019-11-21 01:00:00 -- -- -- -- -- -- -- -- --
2019-11-21 00:00:00 -- -- -- -- -- -- -- -- --
2019-11-20 23:00:00 -- -- -- -- -- -- -- -- --
2019-11-20 22:00:00 -- -- -- -- -- -- -- -- --
2019-11-20 21:00:00 -- -- -- -- -- -- -- -- --
2019-11-20 20:00:00 -- -- -- -- -- -- -- -- --
2019-11-20 19:00:00 10.5 0 Calma 11 Norte 0 -- -- 95
2019-11-20 18:00:00 10.6 4 Norte 18 Norte 0 -- -- 95
2019-11-20 17:00:00 11.2 8 Norte 14 Norte 0 -- -- 96
2019-11-20 16:00:00 10.8 4 Norte 19 Oeste 0.2 -- -- 97
2019-11-20 15:00:00 10.3 7 Norte 13 Norte 3.6 -- -- 96
2019-11-20 14:00:00 10.4 3 Norte 9 Norte 0.4 -- -- 95
2019-11-20 13:00:00 9.6 7 Norte 18 Norte 1.2 -- -- 94
2019-11-20 12:00:00 10 4 Nordeste 11 Este 0.4 -- -- 92
2019-11-20 11:00:00 9.3 5 Nordeste 11 Nordeste 0 -- -- 93
2019-11-20 10:00:00 8.6 5 Norte 10 Nordeste 0 -- -- 94
2019-11-20 09:00:00 7.8 2 Norte 6 Noroeste 0 -- -- 95
2019-11-20 08:00:00 7.2 4 Norte 9 Noroeste 0.2 -- -- 94
2019-11-20 07:00:00 7 2 Norte 6 Norte 0 -- -- 95
2019-11-20 06:00:00 6.3 2 Noroeste 5 Noroeste 0 -- -- 95
2019-11-20 05:00:00 6.2 0 Calma 4 Noroeste 0 -- -- 94
2019-11-20 04:00:00 6.4 0 Calma 5 Noroeste 0 -- -- 93
2019-11-20 03:00:00 6.9 2 Norte 5 Norte 0 -- -- 91
2019-11-20 02:00:00 7.7 3 Norte 6 Norte 0 -- -- 91
2019-11-20 01:00:00 8.4 0 Calma 14 Norte 0 -- -- 89
2019-11-20 00:00:00 8.7 0 Calma 3 Noroeste 0 -- -- 86
2019-11-19 23:00:00 9.9 0 Calma 3 Noroeste 0 -- -- 82
2019-11-19 22:00:00 11.4 0 Calma 8 Oeste 0 -- -- 77
2019-11-19 21:00:00 11.7 0 Calma 3 Norte 0 -- -- 75
2019-11-19 20:00:00 12.5 0 Calma 2 Oeste 0 -- -- 71
2019-11-19 19:00:00 13.8 0 Calma 0 Calma 0 -- -- 65
2019-11-19 18:00:00 15.3 0 Calma 4 Noroeste 0 -- -- 58
2019-11-19 17:00:00 16.7 0 Calma 8 Norte 0 -- -- 51
2019-11-19 16:00:00 17.6 4 Norte 7 Nordeste 0 -- -- 50
2019-11-19 15:00:00 17.5 3 Norte 8 Este 0 -- -- 54
2019-11-19 14:00:00 17.1 4 Nordeste 11 Norte 0 -- -- 56
2019-11-19 13:00:00 16 6 Norte 12 Norte 0 -- -- 59
2019-11-19 12:00:00 14.1 5 Nordeste 10 Norte 0 -- -- 66
2019-11-19 11:00:00 10.2 5 Nordeste 15 Nordeste 0 -- -- 78
2019-11-19 10:00:00 8.7 6 Nordeste 12 Nordeste 0 -- -- 84
2019-11-19 09:00:00 7.3 4 Nordeste 8 Norte 0 -- -- 95
2019-11-19 08:00:00 5.7 3 Norte 6 Norte 0 -- -- 94
2019-11-19 07:00:00 5.7 2 Norte 6 Norte 0 -- -- 92
2019-11-19 06:00:00 6.6 3 Norte 9 Norte 0 -- -- 91
2019-11-19 05:00:00 6.8 4 Norte 9 Noroeste 0 -- -- 92
2019-11-19 04:00:00 6.6 0 Calma 3 Noroeste 0 -- -- 91
2019-11-19 03:00:00 6.8 0 Calma 2 Norte 0 -- -- 90
2019-11-19 02:00:00 7.4 0 Calma 5 Nordeste 0 -- -- 85
2019-11-19 01:00:00 8.1 2 Norte 4 Norte 0 -- -- 85
2019-11-19 00:00:00 8.6 3 Norte 5 Norte 0 -- -- 81
2019-11-18 23:00:00 9.6 0 Calma 7 Noroeste 0 -- -- 77
2019-11-18 22:00:00 9.6 5 Norte 9 Noroeste 0 -- -- 82
2019-11-18 21:00:00 10.3 0 Calma 6 Noroeste 0 -- -- 79
2019-11-18 20:00:00 11.4 0 Calma 3 Sudeste 0 -- -- 73
2019-11-18 19:00:00 13.8 0 Calma 6 Sudoeste 0 -- -- 65
2019-11-18 18:00:00 16.8 0 Calma 4 Noroeste 0 -- -- 55
2019-11-18 17:00:00 19.3 0 Calma 9 Oeste 0 -- -- 43
2019-11-18 16:00:00 19.2 4 Sudeste 7 Sudeste 0 -- -- 43
2019-11-18 15:00:00 18.9 5 Este 12 Este 0 -- -- 47
2019-11-18 14:00:00 18.8 4 Noroeste 14 Nordeste 0 -- -- 48
2019-11-18 13:00:00 17.9 6 Norte 19 Noroeste 0 -- -- 50
2019-11-18 12:00:00 16.6 6 Noroeste 21 Noroeste 0 -- -- 56
2019-11-18 11:00:00 15.2 8 Noroeste 18 Noroeste 0 -- -- 59
2019-11-18 10:00:00 12.8 6 Noroeste 15 Noroeste 0 -- -- 70
2019-11-18 09:00:00 8.4 5 Noroeste 12 Noroeste 0 -- -- 92
2019-11-18 08:00:00 7 0 Calma 7 Noroeste 0 -- -- 88
2019-11-18 07:00:00 8.1 2 Noroeste 11 Noroeste 0 -- -- 85
2019-11-18 06:00:00 8.9 4 Noroeste 18 Oeste 0 -- -- 84
2019-11-18 05:00:00 9.8 7 Noroeste 22 Noroeste 0 -- -- 81
2019-11-18 04:00:00 11.4 8 Noroeste 23 Oeste 0 -- -- 85
2019-11-18 03:00:00 13.9 9 Noroeste 25 Oeste 3.2 -- -- 92
2019-11-18 02:00:00 15.3 17 Oeste 37 Noroeste 0 -- -- 90
2019-11-18 01:00:00 14.8 11 Sudoeste 24 Sudoeste 0 -- -- 90
2019-11-18 00:00:00 14.5 10 Sudoeste 22 Sudoeste 0 -- -- 87
2019-11-17 23:00:00 14.7 12 Oeste 24 Oeste 0 -- -- 85
2019-11-17 22:00:00 14.7 12 Oeste 24 Sudoeste 0 -- -- 86
2019-11-17 21:00:00 14.7 10 Oeste 23 Sudoeste 0 -- -- 89
2019-11-17 20:00:00 14.6 6 Sudoeste 14 Sudoeste 0 -- -- 92
2019-11-17 19:00:00 13.3 0 Calma 9 Norte 0 -- -- 91
2019-11-17 18:00:00 13.6 2 Norte 6 Norte 0 -- -- 87
2019-11-17 17:00:00 14.5 4 Norte 10 Noroeste 0 -- -- 87
2019-11-17 16:00:00 14.2 5 Oeste 13 Oeste 0 -- -- 94
2019-11-17 15:00:00 12.7 3 Sudoeste 8 Sudoeste 0 -- -- 96
2019-11-17 14:00:00 10.2 3 Sudeste 10 Noroeste 0 -- -- 95
2019-11-17 13:00:00 9.8 3 Oeste 7 Oeste 0 -- -- 96
2019-11-17 12:00:00 8.7 0 Calma 4 Sur 0.2 -- -- 95
2019-11-17 11:00:00 8.1 2 Sur 6 Sur 0.2 -- -- 94
2019-11-17 10:00:00 7.5 2 Sur 4 Sur 0.2 -- -- 91
2019-11-17 09:00:00 6.8 3 Sur 6 Sudoeste 0 -- -- 91
2019-11-17 08:00:00 6.7 3 Sudoeste 9 Sudoeste 0 -- -- 86
2019-11-17 07:00:00 6.5 2 Sur 7 Sudoeste 0 -- -- 82
2019-11-17 06:00:00 6.2 2 Sur 6 Sur 0 -- -- 84
2019-11-17 05:00:00 5.3 0 Calma 4 Sudeste 0 -- -- 86
2019-11-17 04:00:00 4.3 0 Calma 4 Sur 0 -- -- 86
2019-11-17 03:00:00 4.1 0 Calma 2 Sudeste 0 -- -- 84
2019-11-17 02:00:00 4.8 0 Calma 4 Sudoeste 0 -- -- 79
2019-11-17 01:00:00 5.8 2 Sudoeste 6 Sur 0 -- -- 74
2019-11-17 00:00:00 6.8 2 Sudoeste 6 Sudoeste 0 -- -- 66
2019-11-16 23:00:00 7 0 Calma 3 Sudoeste 0 -- -- 64
2019-11-16 22:00:00 8.6 0 Calma 8 Noroeste 0 -- -- 58
2019-11-16 21:00:00 9.3 5 Norte 10 Noroeste 0 -- -- 55
2019-11-16 20:00:00 10.1 0 Calma 5 Sudoeste 0 -- -- 63
2019-11-16 19:00:00 12 0 Calma 10 Sur 0 -- -- 56
2019-11-16 18:00:00 14.2 9 Sur 16 Sur 0 -- -- 47
2019-11-16 17:00:00 15.9 9 Sur 16 Sur 0 -- -- 40
2019-11-16 16:00:00 17 6 Sudoeste 13 Sur 0 -- -- 38
2019-11-16 15:00:00 16.8 3 Sudoeste 9 Este 0 -- -- 38
2019-11-16 14:00:00 16.6 2 Norte 11 Nordeste 0 -- -- 41
2019-11-16 13:00:00 15.5 5 Noroeste 12 Nordeste 0 -- -- 42
2019-11-16 12:00:00 15 5 Norte 13 Norte 0 -- -- 45
2019-11-16 11:00:00 12.9 4 Noroeste 13 Norte 0 -- -- 50
2019-11-16 10:00:00 10.1 4 Norte 10 Noroeste 0 -- -- 58
2019-11-16 09:00:00 5.1 0 Calma 4 Oeste 0 -- -- 82
2019-11-16 08:00:00 3.2 0 Calma 7 Norte 0 -- -- 82
2019-11-16 07:00:00 3.4 0 Calma 2 Sudeste 0 -- -- 79
2019-11-16 06:00:00 4.7 0 Calma 6 Noroeste 0 -- -- 74
2019-11-16 05:00:00 5.5 0 Calma 5 Noroeste 0 -- -- 70
2019-11-16 04:00:00 6.8 0 Calma 8 Noroeste 0 -- -- 66
2019-11-16 03:00:00 7.4 4 Noroeste 11 Noroeste 0 -- -- 62
2019-11-16 02:00:00 7.9 4 Noroeste 13 Norte 0 -- -- 60
2019-11-16 01:00:00 8.2 5 Noroeste 14 Noroeste 0 -- -- 58
2019-11-16 00:00:00 8.7 6 Noroeste 13 Noroeste 0 -- -- 56
2019-11-15 23:00:00 9.3 5 Noroeste 18 Norte 0 -- -- 53
2019-11-15 22:00:00 10.1 5 Noroeste 17 Noroeste 0 -- -- 51
2019-11-15 21:00:00 10.9 8 Noroeste 17 Noroeste 0 -- -- 50
2019-11-15 20:00:00 11.8 5 Noroeste 15 Noroeste 0 -- -- 47
2019-11-15 19:00:00 13.1 5 Noroeste 21 Noroeste 0 -- -- 45
2019-11-15 18:00:00 13.9 5 Noroeste 22 Noroeste 0 -- -- 43
2019-11-15 17:00:00 14.6 7 Noroeste 24 Noroeste 0 -- -- 41
2019-11-15 16:00:00 15.6 9 Noroeste 24 Noroeste 0 -- -- 41
2019-11-15 15:00:00 15.2 10 Norte 23 Norte 0 -- -- 41
2019-11-15 14:00:00 16.5 7 Noroeste 18 Oeste 0 -- -- 38
2019-11-15 13:00:00 16.2 5 Noroeste 19 Oeste 0 -- -- 40
2019-11-15 12:00:00 14.1 5 Oeste 16 Oeste 0 -- -- 50
2019-11-15 11:00:00 11.6 7 Oeste 17 Oeste 0 -- -- 64
2019-11-15 10:00:00 7.7 3 Oeste 11 Sur 0 -- -- 82
2019-11-15 09:00:00 6.4 4 Sur 8 Sudeste 0 -- -- 86
2019-11-15 08:00:00 6.4 3 Sudeste 10 Sudoeste 0 -- -- 83
2019-11-15 07:00:00 6.5 0 Calma 17 Sudoeste 0 -- -- 82
2019-11-15 06:00:00 7.5 6 Oeste 15 Oeste 0 -- -- 79
2019-11-15 05:00:00 8.2 7 Oeste 20 Oeste 0 -- -- 76
2019-11-15 04:00:00 8.7 7 Oeste 18 Oeste 0 -- -- 74
2019-11-15 03:00:00 8.9 6 Oeste 16 Sudoeste 0 -- -- 74
2019-11-15 02:00:00 9.7 7 Oeste 15 Oeste 0 -- -- 76
2019-11-15 01:00:00 10.4 8 Oeste 23 Noroeste 0 -- -- 74
2019-11-15 00:00:00 10.7 9 Noroeste 21 Oeste 0 -- -- 71